sensor_id;sensor_type;location;lat;lon;timestamp;pressure;altitude;pressure_sealevel;temperature;humidity
74544;BME280;63016;55.030;38.710;2023-10-09T00:01:07;97290.59;;;4.94;63.85
74544;BME280;63016;55.030;38.710;2023-10-09T00:03:42;97301.09;;;4.92;64.38
74544;BME280;63016;55.030;38.710;2023-10-09T00:06:10;97292.75;;;4.90;64.00
74544;BME280;63016;55.030;38.710;2023-10-09T00:08:38;97299.50;;;4.91;63.96
74544;BME280;63016;55.030;38.710;2023-10-09T00:11:05;97301.50;;;4.89;64.01
74544;BME280;63016;55.030;38.710;2023-10-09T00:13:43;97302.25;;;4.83;63.92
74544;BME280;63016;55.030;38.710;2023-10-09T00:16:16;97315.56;;;4.86;64.03
74544;BME280;63016;55.030;38.710;2023-10-09T00:18:42;97318.53;;;4.83;63.92
74544;BME280;63016;55.030;38.710;2023-10-09T00:21:18;97325.31;;;4.84;64.17
74544;BME280;63016;55.030;38.710;2023-10-09T00:23:48;97334.03;;;4.83;64.34
74544;BME280;63016;55.030;38.710;2023-10-09T00:26:25;97333.25;;;4.83;64.19
74544;BME280;63016;55.030;38.710;2023-10-09T00:28:51;97340.41;;;4.81;63.82
74544;BME280;63016;55.030;38.710;2023-10-09T00:31:17;97346.16;;;4.83;64.14
74544;BME280;63016;55.030;38.710;2023-10-09T00:33:56;97349.75;;;4.82;63.50
74544;BME280;63016;55.030;38.710;2023-10-09T00:36:21;97343.19;;;4.79;63.90
74544;BME280;63016;55.030;38.710;2023-10-09T00:38:54;97344.16;;;4.78;64.38
74544;BME280;63016;55.030;38.710;2023-10-09T00:41:19;97350.31;;;4.77;64.06
74544;BME280;63016;55.030;38.710;2023-10-09T00:43:47;97346.50;;;4.73;64.09
74544;BME280;63016;55.030;38.710;2023-10-09T00:46:19;97359.25;;;4.75;64.41
74544;BME280;63016;55.030;38.710;2023-10-09T00:48:47;97367.59;;;4.77;64.18
74544;BME280;63016;55.030;38.710;2023-10-09T00:51:16;97371.38;;;4.74;64.24
74544;BME280;63016;55.030;38.710;2023-10-09T00:53:50;97369.75;;;4.73;64.54
74544;BME280;63016;55.030;38.710;2023-10-09T00:56:22;97367.75;;;4.69;64.37
74544;BME280;63016;55.030;38.710;2023-10-09T00:58:52;97387.25;;;4.71;64.35
74544;BME280;63016;55.030;38.710;2023-10-09T01:01:22;97383.66;;;4.72;64.26
74544;BME280;63016;55.030;38.710;2023-10-09T01:03:52;97388.63;;;4.74;64.12
74544;BME280;63016;55.030;38.710;2023-10-09T01:06:18;97393.00;;;4.73;64.40
74544;BME280;63016;55.030;38.710;2023-10-09T01:08:46;97394.78;;;4.73;64.32
74544;BME280;63016;55.030;38.710;2023-10-09T01:11:30;97403.53;;;4.72;63.85
74544;BME280;63016;55.030;38.710;2023-10-09T01:13:56;97395.78;;;4.72;64.05
74544;BME280;63016;55.030;38.710;2023-10-09T01:16:34;97402.13;;;4.69;64.21
74544;BME280;63016;55.030;38.710;2023-10-09T01:18:59;97397.13;;;4.68;64.26
74544;BME280;63016;55.030;38.710;2023-10-09T01:21:25;97416.03;;;4.68;64.51
74544;BME280;63016;55.030;38.710;2023-10-09T01:23:52;97402.06;;;4.62;64.32
74544;BME280;63016;55.030;38.710;2023-10-09T01:26:31;97409.63;;;4.64;64.36
74544;BME280;63016;55.030;38.710;2023-10-09T01:29:00;97419.63;;;4.74;63.78
74544;BME280;63016;55.030;38.710;2023-10-09T01:31:26;97418.44;;;4.70;64.07
74544;BME280;63016;55.030;38.710;2023-10-09T01:33:52;97419.00;;;4.65;64.27
74544;BME280;63016;55.030;38.710;2023-10-09T01:36:25;97425.31;;;4.62;64.21
74544;BME280;63016;55.030;38.710;2023-10-09T01:39:00;97433.06;;;4.62;64.68
74544;BME280;63016;55.030;38.710;2023-10-09T01:41:52;97438.22;;;4.62;64.15
74544;BME280;63016;55.030;38.710;2023-10-09T01:44:27;97447.97;;;4.60;64.52
74544;BME280;63016;55.030;38.710;2023-10-09T01:47:01;97447.97;;;4.60;64.29
74544;BME280;63016;55.030;38.710;2023-10-09T01:49:35;97444.59;;;4.60;64.81
74544;BME280;63016;55.030;38.710;2023-10-09T01:52:03;97451.72;;;4.58;64.16
74544;BME280;63016;55.030;38.710;2023-10-09T01:54:42;97437.28;;;4.42;64.35
74544;BME280;63016;55.030;38.710;2023-10-09T01:57:13;97459.28;;;4.59;64.46
74544;BME280;63016;55.030;38.710;2023-10-09T01:59:39;97467.19;;;4.58;64.57
74544;BME280;63016;55.030;38.710;2023-10-09T02:02:10;97481.69;;;4.59;64.46
74544;BME280;63016;55.030;38.710;2023-10-09T02:04:40;97476.53;;;4.59;64.52
74544;BME280;63016;55.030;38.710;2023-10-09T02:07:06;97481.53;;;4.60;64.52
74544;BME280;63016;55.030;38.710;2023-10-09T02:09:34;97481.53;;;4.60;64.37
74544;BME280;63016;55.030;38.710;2023-10-09T02:12:00;97492.66;;;4.61;64.43
74544;BME280;63016;55.030;38.710;2023-10-09T02:14:27;97494.25;;;4.62;64.47
74544;BME280;63016;55.030;38.710;2023-10-09T02:16:53;97497.63;;;4.62;64.48
74544;BME280;63016;55.030;38.710;2023-10-09T02:19:31;97502.38;;;4.59;64.71
74544;BME280;63016;55.030;38.710;2023-10-09T02:22:05;97513.31;;;4.61;64.36
74544;BME280;63016;55.030;38.710;2023-10-09T02:24:41;97503.22;;;4.66;63.62
74544;BME280;63016;55.030;38.710;2023-10-09T02:27:23;97511.72;;;4.60;64.27
74544;BME280;63016;55.030;38.710;2023-10-09T02:30:07;97511.50;;;4.55;64.30
74544;BME280;63016;55.030;38.710;2023-10-09T02:32:45;97521.19;;;4.53;64.63
74544;BME280;63016;55.030;38.710;2023-10-09T02:35:17;97520.59;;;4.51;64.67
74544;BME280;63016;55.030;38.710;2023-10-09T04:52:59;97781.63;;;4.85;65.08
74544;BME280;63016;55.030;38.710;2023-10-09T04:55:42;97783.03;;;4.88;64.68
74544;BME280;63016;55.030;38.710;2023-10-09T04:58:21;97789.63;;;4.90;65.38
74544;BME280;63016;55.030;38.710;2023-10-09T05:00:54;97802.19;;;4.94;65.39
74544;BME280;63016;55.030;38.710;2023-10-09T05:03:23;97800.41;;;4.94;64.95
74544;BME280;63016;55.030;38.710;2023-10-09T05:06:08;97806.84;;;4.98;64.81
74544;BME280;63016;55.030;38.710;2023-10-09T05:08:48;97810.19;;;5.13;68.04
74544;BME280;63016;55.030;38.710;2023-10-09T05:11:14;97817.75;;;5.51;67.82
74544;BME280;63016;55.030;38.710;2023-10-09T05:13:58;97820.44;;;5.64;65.39
74544;BME280;63016;55.030;38.710;2023-10-09T05:16:37;97825.81;;;5.63;65.42
74544;BME280;63016;55.030;38.710;2023-10-09T05:19:09;97823.22;;;5.63;65.07
74544;BME280;63016;55.030;38.710;2023-10-09T05:21:54;97830.97;;;5.63;64.95
74544;BME280;63016;55.030;38.710;2023-10-09T05:24:23;97833.13;;;5.59;64.95
74544;BME280;63016;55.030;38.710;2023-10-09T05:26:50;97827.97;;;5.59;65.64
74544;BME280;63016;55.030;38.710;2023-10-09T05:29:17;97838.94;;;5.61;65.08
74544;BME280;63016;55.030;38.710;2023-10-09T05:32:05;97839.75;;;5.62;64.89
74544;BME280;63016;55.030;38.710;2023-10-09T05:34:31;97848.28;;;5.62;65.13
74544;BME280;63016;55.030;38.710;2023-10-09T05:37:04;97844.13;;;5.61;64.77
74544;BME280;63016;55.030;38.710;2023-10-09T05:39:48;97853.47;;;5.62;64.64
74544;BME280;63016;55.030;38.710;2023-10-09T05:42:33;97853.66;;;5.61;65.25
74544;BME280;63016;55.030;38.710;2023-10-09T05:45:05;97865.78;;;5.60;65.26
74544;BME280;63016;55.030;38.710;2023-10-09T05:47:50;97861.78;;;5.58;65.11
74544;BME280;63016;55.030;38.710;2023-10-09T05:50:26;97866.41;;;5.62;65.67
74544;BME280;63016;55.030;38.710;2023-10-09T05:52:53;97881.13;;;5.62;65.09
74544;BME280;63016;55.030;38.710;2023-10-09T05:55:20;97884.50;;;5.62;65.19
74544;BME280;63016;55.030;38.710;2023-10-09T05:57:46;97896.47;;;5.63;64.80
74544;BME280;63016;55.030;38.710;2023-10-09T06:00:30;97898.06;;;5.64;64.65
74544;BME280;63016;55.030;38.710;2023-10-09T06:03:14;97897.44;;;5.62;65.48
74544;BME280;63016;55.030;38.710;2023-10-09T06:05:49;97906.63;;;5.65;65.24
74544;BME280;63016;55.030;38.710;2023-10-09T06:08:25;97910.81;;;5.66;65.27
74544;BME280;63016;55.030;38.710;2023-10-09T06:11:14;97901.28;;;5.66;65.16
74544;BME280;63016;55.030;38.710;2023-10-09T06:13:59;97911.78;;;5.65;64.68
74544;BME280;63016;55.030;38.710;2023-10-09T06:16:35;97910.81;;;5.66;65.06
74544;BME280;63016;55.030;38.710;2023-10-09T06:19:04;97919.38;;;5.66;64.78
74544;BME280;63016;55.030;38.710;2023-10-09T06:21:36;97927.16;;;5.66;65.28
74544;BME280;63016;55.030;38.710;2023-10-09T06:24:08;97928.56;;;5.69;65.58
74544;BME280;63016;55.030;38.710;2023-10-09T06:26:39;97931.34;;;5.67;65.38
74544;BME280;63016;55.030;38.710;2023-10-09T06:29:16;97939.53;;;5.71;65.46
74544;BME280;63016;55.030;38.710;2023-10-09T06:31:58;97943.44;;;5.82;64.63
74544;BME280;63016;55.030;38.710;2023-10-09T06:34:28;97948.16;;;5.78;64.75
74544;BME280;63016;55.030;38.710;2023-10-09T06:37:01;97953.09;;;5.73;64.84
74544;BME280;63016;55.030;38.710;2023-10-09T06:39:45;97936.44;;;5.61;64.96
74544;BME280;63016;55.030;38.710;2023-10-09T06:42:26;97967.63;;;5.74;65.18
74544;BME280;63016;55.030;38.710;2023-10-09T06:45:05;97976.19;;;5.75;65.10
74544;BME280;63016;55.030;38.710;2023-10-09T06:47:48;97978.78;;;5.75;65.14
74544;BME280;63016;55.030;38.710;2023-10-09T06:50:34;97984.13;;;5.73;64.62
74544;BME280;63016;55.030;38.710;2023-10-09T06:53:19;97984.13;;;5.73;65.28
74544;BME280;63016;55.030;38.710;2023-10-09T06:55:45;97997.69;;;5.75;65.43
74544;BME280;63016;55.030;38.710;2023-10-09T06:58:39;98003.50;;;5.77;65.28
74544;BME280;63016;55.030;38.710;2023-10-09T07:01:08;98006.88;;;5.78;64.56
74544;BME280;63016;55.030;38.710;2023-10-09T07:03:53;98018.03;;;5.78;65.10
74544;BME280;63016;55.030;38.710;2023-10-09T07:06:21;98015.25;;;5.80;64.90
74544;BME280;63016;55.030;38.710;2023-10-09T07:09:02;98029.03;;;5.80;65.32
74544;BME280;63016;55.030;38.710;2023-10-09T07:11:34;98035.81;;;5.81;64.91
74544;BME280;63016;55.030;38.710;2023-10-09T07:14:06;98035.59;;;5.83;65.04
74544;BME280;63016;55.030;38.710;2023-10-09T07:16:33;98039.19;;;5.82;65.16
74544;BME280;63016;55.030;38.710;2023-10-09T07:19:05;98044.16;;;5.83;64.77
74544;BME280;63016;55.030;38.710;2023-10-09T07:21:49;98035.81;;;5.81;65.18
74544;BME280;63016;55.030;38.710;2023-10-09T07:24:21;98051.75;;;5.85;64.95
74544;BME280;63016;55.030;38.710;2023-10-09T07:27:04;98057.56;;;5.87;65.05
74544;BME280;63016;55.030;38.710;2023-10-09T07:29:35;98064.97;;;5.90;64.74
74544;BME280;63016;55.030;38.710;2023-10-09T07:32:13;98054.19;;;5.86;64.61
74544;BME280;63016;55.030;38.710;2023-10-09T07:34:46;98056.91;;;5.85;65.15
74544;BME280;63016;55.030;38.710;2023-10-09T07:37:26;98073.69;;;5.89;65.08
74544;BME280;63016;55.030;38.710;2023-10-09T07:40:03;98080.34;;;5.91;64.79
74544;BME280;63016;55.030;38.710;2023-10-09T07:42:33;98077.91;;;5.90;65.06
74544;BME280;63016;55.030;38.710;2023-10-09T07:45:19;98075.97;;;5.92;65.35
74544;BME280;63016;55.030;38.710;2023-10-09T07:47:48;98076.13;;;5.90;65.31
74544;BME280;63016;55.030;38.710;2023-10-09T07:50:28;98086.94;;;5.94;64.60
74544;BME280;63016;55.030;38.710;2023-10-09T07:53:12;98100.88;;;5.93;64.87
74544;BME280;63016;55.030;38.710;2023-10-09T07:55:44;98087.63;;;5.88;64.97
74544;BME280;63016;55.030;38.710;2023-10-09T07:58:20;98105.84;;;5.95;65.48
74544;BME280;63016;55.030;38.710;2023-10-09T08:00:54;98107.47;;;5.96;64.90
74544;BME280;63016;55.030;38.710;2023-10-09T08:03:24;98115.25;;;5.96;64.94
74544;BME280;63016;55.030;38.710;2023-10-09T08:05:51;98116.06;;;5.96;65.17
74544;BME280;63016;55.030;38.710;2023-10-09T08:08:21;98120.84;;;5.99;65.44
74544;BME280;63016;55.030;38.710;2023-10-09T08:10:59;98119.69;;;6.02;65.57
74544;BME280;63016;55.030;38.710;2023-10-09T08:13:43;98128.88;;;6.04;65.28
74544;BME280;63016;55.030;38.710;2023-10-09T08:16:15;98130.66;;;6.04;64.90
74544;BME280;63016;55.030;38.710;2023-10-09T08:18:47;98137.56;;;6.11;64.35
74544;BME280;63016;55.030;38.710;2023-10-09T08:21:17;98145.31;;;6.11;65.06
74544;BME280;63016;55.030;38.710;2023-10-09T08:23:43;98136.31;;;6.07;65.30
74544;BME280;63016;55.030;38.710;2023-10-09T08:26:14;98151.09;;;6.13;65.38
74544;BME280;63016;55.030;38.710;2023-10-09T08:28:55;98144.59;;;6.17;65.18
74544;BME280;63016;55.030;38.710;2023-10-09T08:31:41;98149.41;;;6.21;64.76
74544;BME280;63016;55.030;38.710;2023-10-09T08:34:22;98147.28;;;6.24;65.20
74544;BME280;63016;55.030;38.710;2023-10-09T08:36:52;98156.47;;;6.27;65.08
74544;BME280;63016;55.030;38.710;2023-10-09T08:39:22;98156.28;;;6.28;65.38
74544;BME280;63016;55.030;38.710;2023-10-09T08:41:54;98150.13;;;6.29;65.19
74544;BME280;63016;55.030;38.710;2023-10-09T08:44:24;98167.72;;;6.34;65.19
74544;BME280;63016;55.030;38.710;2023-10-09T08:46:55;98179.50;;;6.36;65.13
74544;BME280;63016;55.030;38.710;2023-10-09T08:49:26;98178.50;;;6.37;65.35
74544;BME280;63016;55.030;38.710;2023-10-09T08:51:52;98179.31;;;6.38;65.16
74544;BME280;63016;55.030;38.710;2023-10-09T08:54:20;98183.69;;;6.37;65.13
74544;BME280;63016;55.030;38.710;2023-10-09T08:56:47;98184.47;;;6.38;64.91
74544;BME280;63016;55.030;38.710;2023-10-09T08:59:17;98188.72;;;6.39;64.75
74544;BME280;63016;55.030;38.710;2023-10-09T09:01:53;98195.50;;;6.40;64.67
74544;BME280;63016;55.030;38.710;2023-10-09T09:04:51;98202.34;;;6.48;64.81
74544;BME280;63016;55.030;38.710;2023-10-09T09:07:30;98194.94;;;6.44;65.19
74544;BME280;63016;55.030;38.710;2023-10-09T09:10:07;98200.38;;;6.50;65.43
74544;BME280;63016;55.030;38.710;2023-10-09T09:12:50;98214.84;;;6.59;65.08
74544;BME280;63016;55.030;38.710;2023-10-09T09:15:27;98219.66;;;6.62;65.13
74544;BME280;63016;55.030;38.710;2023-10-09T09:18:13;98220.91;;;6.66;65.73
74544;BME280;63016;55.030;38.710;2023-10-09T09:20:43;98217.31;;;6.67;65.64
74544;BME280;63016;55.030;38.710;2023-10-09T09:23:12;98226.25;;;6.79;66.67
74544;BME280;63016;55.030;38.710;2023-10-09T09:25:48;98225.34;;;6.87;65.97
74544;BME280;63016;55.030;38.710;2023-10-09T09:28:23;98226.56;;;6.91;64.83
74544;BME280;63016;55.030;38.710;2023-10-09T09:30:54;98232.94;;;6.88;65.06
74544;BME280;63016;55.030;38.710;2023-10-09T09:33:35;98241.72;;;6.87;64.93
74544;BME280;63016;55.030;38.710;2023-10-09T09:36:08;98242.66;;;6.86;64.26
74544;BME280;63016;55.030;38.710;2023-10-09T09:38:37;98235.88;;;6.85;65.06
74544;BME280;63016;55.030;38.710;2023-10-09T09:41:19;98247.84;;;6.86;65.32
74544;BME280;63016;55.030;38.710;2023-10-09T09:43:58;98245.91;;;6.88;64.86
74544;BME280;63016;55.030;38.710;2023-10-09T09:46:31;98252.06;;;6.87;64.48
74544;BME280;63016;55.030;38.710;2023-10-09T09:49:06;98248.69;;;6.87;64.49
74544;BME280;63016;55.030;38.710;2023-10-09T09:51:45;98246.63;;;6.82;64.71
74544;BME280;63016;55.030;38.710;2023-10-09T09:54:18;98248.84;;;6.85;65.92
74544;BME280;63016;55.030;38.710;2023-10-09T09:56:48;98253.03;;;6.86;65.53
74544;BME280;63016;55.030;38.710;2023-10-09T09:59:25;98256.28;;;6.88;65.74
74544;BME280;63016;55.030;38.710;2023-10-09T10:01:59;98250.16;;;6.96;66.42
74544;BME280;63016;55.030;38.710;2023-10-09T10:04:32;98261.44;;;7.03;65.75
74544;BME280;63016;55.030;38.710;2023-10-09T10:07:07;98256.69;;;7.07;65.59
74544;BME280;63016;55.030;38.710;2023-10-09T10:09:39;98256.69;;;7.07;65.70
74544;BME280;63016;55.030;38.710;2023-10-09T10:12:12;98262.91;;;7.12;65.41
74544;BME280;63016;55.030;38.710;2023-10-09T10:14:59;98270.97;;;7.17;66.04
74544;BME280;63016;55.030;38.710;2023-10-09T10:21:14;98280.41;;;7.25;65.67
74544;BME280;63016;55.030;38.710;2023-10-09T10:24:01;98287.22;;;7.26;65.10
74544;BME280;63016;55.030;38.710;2023-10-09T10:26:37;98286.03;;;7.29;66.17
74544;BME280;63016;55.030;38.710;2023-10-09T10:29:19;98298.09;;;7.36;65.14
74544;BME280;63016;55.030;38.710;2023-10-09T10:32:03;98290.38;;;7.43;67.12
74544;BME280;63016;55.030;38.710;2023-10-09T10:34:54;98293.03;;;7.50;65.24
74544;BME280;63016;55.030;38.710;2023-10-09T10:40:25;98303.22;;;7.51;66.91
74544;BME280;63016;55.030;38.710;2023-10-09T10:43:18;98307.00;;;7.70;67.13
74544;BME280;63016;55.030;38.710;2023-10-09T10:46:23;98304.38;;;7.91;67.70
74544;BME280;63016;55.030;38.710;2023-10-09T10:48:55;98311.28;;;8.06;66.97
74544;BME280;63016;55.030;38.710;2023-10-09T10:51:42;98312.53;;;8.10;65.65
74544;BME280;63016;55.030;38.710;2023-10-09T10:54:24;98321.25;;;8.02;65.16
74544;BME280;63016;55.030;38.710;2023-10-09T10:57:00;98323.44;;;7.98;65.52
74544;BME280;63016;55.030;38.710;2023-10-09T10:59:39;98317.53;;;8.11;66.98
74544;BME280;63016;55.030;38.710;2023-10-09T11:02:13;98323.75;;;8.17;65.30
74544;BME280;63016;55.030;38.710;2023-10-09T11:04:50;98326.38;;;8.17;64.99
74544;BME280;63016;55.030;38.710;2023-10-09T11:07:39;98319.97;;;8.13;64.57
74544;BME280;63016;55.030;38.710;2023-10-09T11:10:06;98330.53;;;8.11;65.27
74544;BME280;63016;55.030;38.710;2023-10-09T11:12:45;98326.31;;;8.10;66.50
74544;BME280;63016;55.030;38.710;2023-10-09T11:15:33;98344.97;;;8.20;65.28
74544;BME280;63016;55.030;38.710;2023-10-09T11:18:14;98338.38;;;8.18;64.43
74544;BME280;63016;55.030;38.710;2023-10-09T11:20:51;98345.31;;;8.11;64.63
74544;BME280;63016;55.030;38.710;2023-10-09T11:23:31;98339.44;;;8.02;64.78
74544;BME280;63016;55.030;38.710;2023-10-09T11:26:03;98342.22;;;8.01;64.35
74544;BME280;63016;55.030;38.710;2023-10-09T11:29:07;98351.81;;;8.00;64.36
74544;BME280;63016;55.030;38.710;2023-10-09T11:34:27;98353.47;;;7.86;64.70
74544;BME280;63016;55.030;38.710;2023-10-09T11:37:12;98359.66;;;7.85;64.59
74544;BME280;63016;55.030;38.710;2023-10-09T11:39:41;98358.69;;;7.86;64.24
74544;BME280;63016;55.030;38.710;2023-10-09T11:42:20;98369.63;;;7.82;64.73
74544;BME280;63016;55.030;38.710;2023-10-09T11:45:19;98362.81;;;7.81;64.91
74544;BME280;63016;55.030;38.710;2023-10-09T11:47:55;98364.38;;;7.75;64.74
74544;BME280;63016;55.030;38.710;2023-10-09T11:50:57;98380.63;;;7.84;65.08
74544;BME280;63016;55.030;38.710;2023-10-09T11:53:40;98375.00;;;7.80;64.77
74544;BME280;63016;55.030;38.710;2023-10-09T11:56:14;98392.19;;;7.81;64.42
74544;BME280;63016;55.030;38.710;2023-10-09T11:58:52;98391.75;;;7.78;64.68
74544;BME280;63016;55.030;38.710;2023-10-09T12:01:28;98399.72;;;7.76;64.76
74544;BME280;63016;55.030;38.710;2023-10-09T12:04:09;98394.72;;;7.75;64.93
74544;BME280;63016;55.030;38.710;2023-10-09T12:06:38;98402.06;;;7.71;65.11
74544;BME280;63016;55.030;38.710;2023-10-09T12:09:07;98400.47;;;7.70;64.92
74544;BME280;63016;55.030;38.710;2023-10-09T12:11:44;98404.06;;;7.69;64.94
74544;BME280;63016;55.030;38.710;2023-10-09T12:14:29;98399.81;;;7.68;65.03
74544;BME280;63016;55.030;38.710;2023-10-09T12:17:00;98402.41;;;7.68;64.46
74544;BME280;63016;55.030;38.710;2023-10-09T12:19:41;98397.16;;;7.61;64.46
74544;BME280;63016;55.030;38.710;2023-10-09T12:22:08;98421.94;;;7.64;64.55
74544;BME280;63016;55.030;38.710;2023-10-09T12:24:42;98424.91;;;7.61;64.92
74544;BME280;63016;55.030;38.710;2023-10-09T12:27:11;98424.28;;;7.59;64.71
74544;BME280;63016;55.030;38.710;2023-10-09T12:29:43;98430.47;;;7.58;64.73
74544;BME280;63016;55.030;38.710;2023-10-09T12:32:10;98432.44;;;7.56;64.71
74544;BME280;63016;55.030;38.710;2023-10-09T12:34:39;98432.00;;;7.52;65.23
74544;BME280;63016;55.030;38.710;2023-10-09T12:37:10;98438.19;;;7.51;64.51
74544;BME280;63016;55.030;38.710;2023-10-09T12:39:42;98440.59;;;7.53;64.61
74544;BME280;63016;55.030;38.710;2023-10-09T12:42:12;98444.19;;;7.52;64.61
74544;BME280;63016;55.030;38.710;2023-10-09T12:44:44;98438.72;;;7.46;64.79
74544;BME280;63016;55.030;38.710;2023-10-09T12:47:10;98450.44;;;7.42;64.44
74544;BME280;63016;55.030;38.710;2023-10-09T12:49:37;98455.03;;;7.40;64.39
74544;BME280;63016;55.030;38.710;2023-10-09T12:52:09;98464.75;;;7.38;64.61
74544;BME280;63016;55.030;38.710;2023-10-09T12:54:45;98463.97;;;7.38;65.02
74544;BME280;63016;55.030;38.710;2023-10-09T12:57:13;98470.13;;;7.37;64.68
74544;BME280;63016;55.030;38.710;2023-10-09T12:59:43;98462.91;;;7.32;64.61
74544;BME280;63016;55.030;38.710;2023-10-09T13:02:14;98471.94;;;7.36;64.79
74544;BME280;63016;55.030;38.710;2023-10-09T13:04:57;98483.31;;;7.35;64.71
74544;BME280;63016;55.030;38.710;2023-10-09T13:07:25;98495.63;;;7.33;64.43
74544;BME280;63016;55.030;38.710;2023-10-09T13:09:50;98490.81;;;7.30;64.51
74544;BME280;63016;55.030;38.710;2023-10-09T13:12:35;98489.38;;;7.28;64.80
74544;BME280;63016;55.030;38.710;2023-10-09T13:15:10;98487.31;;;7.23;64.22
74544;BME280;63016;55.030;38.710;2023-10-09T13:17:37;98476.41;;;7.13;64.56
74544;BME280;63016;55.030;38.710;2023-10-09T13:20:03;98480.25;;;7.17;64.81
74544;BME280;63016;55.030;38.710;2023-10-09T13:22:40;98494.47;;;7.21;64.14
74544;BME280;63016;55.030;38.710;2023-10-09T13:25:08;98500.00;;;7.18;64.42
74544;BME280;63016;55.030;38.710;2023-10-09T13:27:41;98506.66;;;7.20;64.38
74544;BME280;63016;55.030;38.710;2023-10-09T13:30:07;98508.59;;;7.18;64.98
74544;BME280;63016;55.030;38.710;2023-10-09T13:32:36;98511.00;;;7.20;64.79
74544;BME280;63016;55.030;38.710;2023-10-09T13:35:02;98518.78;;;7.20;64.96
74544;BME280;63016;55.030;38.710;2023-10-09T13:37:29;98531.94;;;7.18;64.68
74544;BME280;63016;55.030;38.710;2023-10-09T13:40:03;98522.09;;;7.14;64.55
74544;BME280;63016;55.030;38.710;2023-10-09T13:42:39;98529.06;;;7.13;64.43
74544;BME280;63016;55.030;38.710;2023-10-09T13:45:05;98534.44;;;7.12;64.53
74544;BME280;63016;55.030;38.710;2023-10-09T13:47:44;98539.19;;;7.08;64.37
74544;BME280;63016;55.030;38.710;2023-10-09T13:50:10;98557.31;;;7.08;64.08
74544;BME280;63016;55.030;38.710;2023-10-09T13:52:36;98544.41;;;7.00;64.84
74544;BME280;63016;55.030;38.710;2023-10-09T13:55:06;98555.59;;;7.01;64.90
74544;BME280;63016;55.030;38.710;2023-10-09T13:57:41;98569.41;;;7.01;64.25
74544;BME280;63016;55.030;38.710;2023-10-09T14:00:13;98573.13;;;6.99;65.03
74544;BME280;63016;55.030;38.710;2023-10-09T14:02:43;98585.38;;;7.05;64.32
74544;BME280;63016;55.030;38.710;2023-10-09T14:05:08;98578.31;;;6.99;64.13
74544;BME280;63016;55.030;38.710;2023-10-09T14:07:37;98579.66;;;6.94;64.95
74544;BME280;63016;55.030;38.710;2023-10-09T14:10:03;98578.75;;;6.87;65.22
74544;BME280;63016;55.030;38.710;2023-10-09T14:12:51;98574.19;;;6.89;64.75
74544;BME280;63016;55.030;38.710;2023-10-09T14:15:22;98580.53;;;6.87;64.78
74544;BME280;63016;55.030;38.710;2023-10-09T14:17:48;98592.03;;;6.84;64.81
74544;BME280;63016;55.030;38.710;2023-10-09T14:20:22;98580.59;;;6.79;64.68
74544;BME280;63016;55.030;38.710;2023-10-09T14:23:02;98596.75;;;6.81;64.93
74544;BME280;63016;55.030;38.710;2023-10-09T14:25:37;98592.75;;;6.78;64.69
74544;BME280;63016;55.030;38.710;2023-10-09T14:28:08;98599.25;;;6.74;65.15
74544;BME280;63016;55.030;38.710;2023-10-09T14:30:38;98601.84;;;6.74;64.38
74544;BME280;63016;55.030;38.710;2023-10-09T14:33:13;98587.31;;;6.65;65.00
74544;BME280;63016;55.030;38.710;2023-10-09T14:35:48;98611.91;;;6.69;64.49
74544;BME280;63016;55.030;38.710;2023-10-09T14:38:15;98611.91;;;6.69;64.70
74544;BME280;63016;55.030;38.710;2023-10-09T14:40:42;98611.25;;;6.67;65.04
74544;BME280;63016;55.030;38.710;2023-10-09T14:43:09;98622.47;;;6.67;64.97
74544;BME280;63016;55.030;38.710;2023-10-09T14:45:45;98616.00;;;6.63;64.58
74544;BME280;63016;55.030;38.710;2023-10-09T14:48:15;98616.00;;;6.63;64.85
74544;BME280;63016;55.030;38.710;2023-10-09T14:50:52;98620.09;;;6.58;65.18
74544;BME280;63016;55.030;38.710;2023-10-09T14:53:30;98627.69;;;6.59;64.70
74544;BME280;63016;55.030;38.710;2023-10-09T14:55:58;98635.63;;;6.58;64.82
74544;BME280;63016;55.030;38.710;2023-10-09T14:58:31;98650.22;;;6.59;65.22
74544;BME280;63016;55.030;38.710;2023-10-09T15:01:15;98644.38;;;6.57;65.20
74544;BME280;63016;55.030;38.710;2023-10-09T15:03:47;98642.47;;;6.51;65.27
74544;BME280;63016;55.030;38.710;2023-10-09T15:06:14;98649.25;;;6.52;64.98
74544;BME280;63016;55.030;38.710;2023-10-09T15:08:43;98663.50;;;6.56;64.80
74544;BME280;63016;55.030;38.710;2023-10-09T15:11:09;98661.88;;;6.55;65.11
74544;BME280;63016;55.030;38.710;2023-10-09T15:13:35;98659.63;;;6.52;64.91
74544;BME280;63016;55.030;38.710;2023-10-09T15:16:01;98665.78;;;6.51;64.54
74544;BME280;63016;55.030;38.710;2023-10-09T15:18:29;98669.19;;;6.51;65.06
74544;BME280;63016;55.030;38.710;2023-10-09T15:20:58;98671.78;;;6.51;65.04
74544;BME280;63016;55.030;38.710;2023-10-09T15:23:28;98681.34;;;6.51;65.11
74544;BME280;63016;55.030;38.710;2023-10-09T15:25:57;98681.16;;;6.52;65.07
74544;BME280;63016;55.030;38.710;2023-10-09T15:28:28;98691.53;;;6.52;65.25
74544;BME280;63016;55.030;38.710;2023-10-09T15:30:58;98678.75;;;6.51;65.00
74544;BME280;63016;55.030;38.710;2023-10-09T15:33:30;98700.75;;;6.55;64.68
74544;BME280;63016;55.030;38.710;2023-10-09T15:35:56;98704.16;;;6.55;65.25
74544;BME280;63016;55.030;38.710;2023-10-09T15:38:25;98712.72;;;6.56;65.32
74544;BME280;63016;55.030;38.710;2023-10-09T15:40:59;98718.09;;;6.54;65.08
74544;BME280;63016;55.030;38.710;2023-10-09T15:43:32;98720.03;;;6.52;65.20
74544;BME280;63016;55.030;38.710;2023-10-09T15:46:00;98718.59;;;6.50;64.81
74544;BME280;63016;55.030;38.710;2023-10-09T15:48:26;98719.56;;;6.49;64.86
74544;BME280;63016;55.030;38.710;2023-10-09T15:50:51;98723.28;;;6.46;64.90
74544;BME280;63016;55.030;38.710;2023-10-09T15:53:21;98730.75;;;6.41;65.18
74544;BME280;63016;55.030;38.710;2023-10-09T15:56:00;98721.56;;;6.38;64.65
74544;BME280;63016;55.030;38.710;2023-10-09T15:58:46;98725.09;;;6.37;65.11
74544;BME280;63016;55.030;38.710;2023-10-09T16:01:13;98730.63;;;6.34;65.56